createdAt,value
2017-10-20T00:00:44.195Z,0
2017-10-20T00:01:44.770Z,0
2017-10-20T00:02:45.345Z,0
2017-10-20T00:03:45.919Z,0
2017-10-20T00:04:46.493Z,0
2017-10-20T00:05:47.066Z,0
2017-10-20T00:06:47.642Z,0
2017-10-20T00:07:48.226Z,0
2017-10-20T00:08:48.802Z,0
2017-10-20T00:09:49.384Z,0
2017-10-20T00:10:49.970Z,0
2017-10-20T00:11:50.543Z,0
2017-10-20T00:12:51.118Z,0
2017-10-20T00:13:51.691Z,0
2017-10-20T00:14:52.266Z,0
2017-10-20T00:15:52.839Z,0
2017-10-20T00:16:53.413Z,0
2017-10-20T00:17:53.987Z,0
2017-10-20T00:18:54.559Z,0
2017-10-20T00:19:55.132Z,0
2017-10-20T00:20:55.704Z,0
2017-10-20T00:21:56.278Z,0
2017-10-20T00:22:56.852Z,0
2017-10-20T00:23:57.426Z,0
2017-10-20T00:24:58.001Z,0
2017-10-20T00:25:58.577Z,0
2017-10-20T00:26:59.151Z,0
2017-10-20T00:27:59.737Z,0
2017-10-20T00:29:00.309Z,0
2017-10-20T00:30:00.883Z,0
2017-10-20T00:31:01.459Z,0
2017-10-20T00:32:02.033Z,0
2017-10-20T00:33:02.607Z,0
2017-10-20T00:34:03.182Z,0
2017-10-20T00:35:03.759Z,0
2017-10-20T00:36:04.332Z,0
2017-10-20T00:37:04.907Z,0
2017-10-20T00:38:05.481Z,0
2017-10-20T00:39:06.054Z,0
2017-10-20T00:40:06.629Z,0
2017-10-20T00:41:07.211Z,0
2017-10-20T00:42:07.786Z,0
2017-10-20T00:43:08.363Z,0
2017-10-20T00:44:08.947Z,0
2017-10-20T00:45:09.518Z,0
2017-10-20T00:46:10.097Z,0
2017-10-20T00:47:10.667Z,0
2017-10-20T00:48:11.242Z,0
2017-10-20T00:49:11.816Z,0
2017-10-20T00:50:12.401Z,0
2017-10-20T00:51:12.974Z,0
2017-10-20T00:52:13.550Z,0
2017-10-20T00:53:14.123Z,0
2017-10-20T00:54:14.699Z,0
2017-10-20T00:55:15.273Z,0
2017-10-20T00:56:15.848Z,0
2017-10-20T00:57:16.420Z,0
2017-10-20T00:58:16.993Z,0
2017-10-20T00:59:17.567Z,0
2017-10-20T01:00:18.153Z,0
2017-10-20T01:01:18.730Z,0
2017-10-20T01:02:19.314Z,0
2017-10-20T01:03:19.888Z,0
2017-10-20T01:04:20.466Z,0
2017-10-20T01:05:21.036Z,0
2017-10-20T01:06:21.611Z,0
2017-10-20T01:07:22.191Z,0
2017-10-20T01:08:22.760Z,0
2017-10-20T01:09:23.345Z,0
2017-10-20T01:10:23.919Z,0
2017-10-20T01:11:24.494Z,0
2017-10-20T01:12:25.068Z,0
2017-10-20T01:13:25.643Z,0
2017-10-20T01:14:26.215Z,0
2017-10-20T01:15:26.790Z,0
2017-10-20T01:16:27.364Z,0
2017-10-20T01:17:27.942Z,0
2017-10-20T01:18:28.512Z,0
2017-10-20T01:19:29.085Z,0
2017-10-20T01:20:29.658Z,0
2017-10-20T01:21:30.233Z,0
2017-10-20T01:22:30.819Z,0
2017-10-20T01:23:31.392Z,0
2017-10-20T01:24:31.971Z,0
2017-10-20T01:25:32.540Z,0
2017-10-20T01:26:33.113Z,0
2017-10-20T01:27:33.685Z,0
2017-10-20T01:28:34.260Z,0
2017-10-20T01:29:34.833Z,0
2017-10-20T01:30:35.408Z,0
2017-10-20T01:31:35.993Z,0
2017-10-20T01:32:36.567Z,0
2017-10-20T01:33:37.140Z,0
2017-10-20T01:34:37.726Z,0
2017-10-20T01:35:38.300Z,0
2017-10-20T01:36:38.875Z,0
2017-10-20T01:37:39.449Z,0
2017-10-20T01:38:40.035Z,0
2017-10-20T01:39:40.598Z,0
2017-10-20T01:40:41.173Z,0
2017-10-20T01:41:41.746Z,0
2017-10-20T01:42:42.320Z,0
2017-10-20T01:43:42.896Z,0
2017-10-20T01:44:43.471Z,0
2017-10-20T01:45:44.046Z,0
2017-10-20T01:46:44.621Z,0
2017-10-20T01:47:45.201Z,0
2017-10-20T01:48:45.770Z,0
2017-10-20T01:49:46.343Z,0
2017-10-20T01:50:46.926Z,0
2017-10-20T01:51:47.491Z,0
2017-10-20T01:52:48.064Z,0
2017-10-20T01:53:48.651Z,0
2017-10-20T01:54:49.227Z,0
2017-10-20T01:55:49.814Z,0
2017-10-20T01:56:50.389Z,0
2017-10-20T01:57:50.964Z,0
2017-10-20T01:58:51.551Z,0
2017-10-20T01:59:52.126Z,0
2017-10-20T02:00:52.700Z,0
2017-10-20T02:01:53.274Z,0
2017-10-20T02:02:53.849Z,0
2017-10-20T02:03:54.433Z,0
2017-10-20T02:04:55.008Z,0
2017-10-20T02:05:55.599Z,0
2017-10-20T02:06:56.161Z,0
2017-10-20T02:07:56.735Z,0
2017-10-20T02:08:57.313Z,0
2017-10-20T02:09:57.883Z,0
2017-10-20T02:10:58.468Z,0
2017-10-20T02:11:59.045Z,0
2017-10-20T02:12:59.620Z,0
2017-10-20T02:14:00.194Z,0
2017-10-20T02:15:00.768Z,0
2017-10-20T02:16:01.343Z,0
2017-10-20T02:17:01.917Z,0
2017-10-20T02:18:02.491Z,0
2017-10-20T02:19:03.064Z,0
2017-10-20T02:20:03.639Z,0
2017-10-20T02:21:04.219Z,0
2017-10-20T02:22:04.789Z,0
2017-10-20T02:23:05.380Z,0
2017-10-20T02:24:05.949Z,0
2017-10-20T02:25:06.522Z,0
2017-10-20T02:26:07.098Z,0
2017-10-20T02:27:07.673Z,0
2017-10-20T02:28:08.247Z,0
2017-10-20T02:29:08.823Z,0
2017-10-20T02:30:09.398Z,0
2017-10-20T02:31:09.974Z,0
2017-10-20T02:32:10.546Z,0
2017-10-20T02:33:11.121Z,0
2017-10-20T02:34:11.706Z,0
2017-10-20T02:35:12.282Z,0
2017-10-20T02:36:12.869Z,0
2017-10-20T02:37:13.444Z,0
2017-10-20T02:38:14.019Z,0
2017-10-20T02:39:14.608Z,0
2017-10-20T02:40:15.169Z,0
2017-10-20T02:41:15.745Z,0
2017-10-20T02:42:16.318Z,0
2017-10-20T02:43:16.892Z,0
2017-10-20T02:44:17.467Z,0
2017-10-20T02:45:18.040Z,0
2017-10-20T02:46:18.619Z,0
2017-10-20T02:47:19.189Z,0
2017-10-20T02:48:19.765Z,0
2017-10-20T02:49:20.352Z,0
2017-10-20T02:50:20.926Z,0
2017-10-20T02:51:21.499Z,0
2017-10-20T02:52:22.075Z,0
2017-10-20T02:53:22.650Z,0
2017-10-20T02:54:23.225Z,0
2017-10-20T02:55:23.801Z,0
2017-10-20T02:56:24.385Z,0
2017-10-20T02:57:24.959Z,0
2017-10-20T02:58:25.535Z,0
2017-10-20T02:59:26.110Z,0
2017-10-20T03:00:26.685Z,0
2017-10-20T03:01:27.258Z,0
2017-10-20T03:02:27.834Z,0
2017-10-20T03:03:28.408Z,0
2017-10-20T03:04:28.994Z,0
2017-10-20T03:05:29.570Z,0
2017-10-20T03:06:30.143Z,0
2017-10-20T03:07:30.718Z,0
2017-10-20T03:08:31.291Z,0
2017-10-20T03:09:31.866Z,0
2017-10-20T03:10:32.439Z,0
2017-10-20T03:11:33.015Z,0
2017-10-20T03:12:33.588Z,0
2017-10-20T03:13:34.169Z,0
2017-10-20T03:14:34.735Z,0
2017-10-20T03:15:35.310Z,0
2017-10-20T03:16:35.895Z,0
2017-10-20T03:17:36.469Z,0
2017-10-20T03:18:37.045Z,0
2017-10-20T03:19:37.618Z,0
2017-10-20T03:20:38.190Z,0
2017-10-20T03:21:38.765Z,0
2017-10-20T03:22:39.351Z,0
2017-10-20T03:23:39.925Z,0
2017-10-20T03:24:40.498Z,0
2017-10-20T03:25:41.072Z,0
2017-10-20T03:26:41.668Z,0
2017-10-20T03:27:42.220Z,0
2017-10-20T03:28:42.793Z,0
2017-10-20T03:29:43.366Z,0
2017-10-20T03:30:43.942Z,0
2017-10-20T03:31:44.515Z,0
2017-10-20T03:32:45.091Z,0
2017-10-20T03:33:45.666Z,0
2017-10-20T03:34:46.242Z,0
2017-10-20T03:35:46.817Z,0
2017-10-20T03:36:47.403Z,0
2017-10-20T03:37:47.977Z,0
2017-10-20T03:38:48.552Z,0
2017-10-20T03:39:49.131Z,0
2017-10-20T03:40:49.700Z,0
2017-10-20T03:41:50.277Z,0
2017-10-20T03:42:50.850Z,0
2017-10-20T03:43:51.424Z,0
2017-10-20T03:44:51.999Z,0
2017-10-20T03:45:52.584Z,0
2017-10-20T03:46:53.148Z,0
2017-10-20T03:47:53.724Z,0
2017-10-20T03:48:54.307Z,0
2017-10-20T03:49:54.892Z,0
2017-10-20T03:50:55.466Z,0
2017-10-20T03:51:56.040Z,0
2017-10-20T03:52:56.614Z,0
2017-10-20T03:53:57.187Z,0
2017-10-20T03:54:57.765Z,0
2017-10-20T03:55:58.333Z,0
2017-10-20T03:56:58.906Z,0
2017-10-20T03:57:59.493Z,0
2017-10-20T03:59:00.069Z,0
2017-10-20T04:00:00.642Z,0
2017-10-20T04:01:01.217Z,0
2017-10-20T04:02:01.790Z,0
2017-10-20T04:03:02.365Z,0
2017-10-20T04:04:02.942Z,0
2017-10-20T04:05:03.513Z,0
2017-10-20T04:06:04.093Z,0
2017-10-20T04:07:04.664Z,0
2017-10-20T04:08:05.240Z,0
2017-10-20T04:09:05.814Z,0
2017-10-20T04:10:06.389Z,0
2017-10-20T04:11:06.963Z,0
2017-10-20T04:12:07.537Z,0
2017-10-20T04:13:08.114Z,0
2017-10-20T04:14:08.682Z,0
2017-10-20T04:15:09.256Z,0
2017-10-20T04:16:09.829Z,0
2017-10-20T04:17:10.403Z,0
2017-10-20T04:18:10.977Z,0
2017-10-20T04:19:11.554Z,0
2017-10-20T04:20:12.128Z,0
2017-10-20T04:21:12.703Z,0
2017-10-20T04:22:13.289Z,0
2017-10-20T04:23:13.863Z,0
2017-10-20T04:24:14.438Z,0
2017-10-20T04:25:15.012Z,0
2017-10-20T04:26:15.587Z,0
2017-10-20T04:27:16.161Z,0
2017-10-20T04:28:16.736Z,0
2017-10-20T04:29:17.310Z,0
2017-10-20T04:30:17.882Z,0
2017-10-20T04:31:18.657Z,0
2017-10-20T04:32:19.233Z,0
2017-10-20T04:33:19.806Z,0
2017-10-20T04:34:20.381Z,0
2017-10-20T04:35:20.954Z,0
2017-10-20T04:36:21.528Z,0
2017-10-20T04:37:22.102Z,0
2017-10-20T04:38:22.674Z,0
2017-10-20T04:39:23.247Z,0
2017-10-20T04:40:23.821Z,0
2017-10-20T04:41:24.395Z,0
2017-10-20T04:42:24.968Z,0
2017-10-20T04:43:25.543Z,0
2017-10-20T04:44:26.118Z,0
2017-10-20T04:45:26.693Z,0
2017-10-20T04:46:27.278Z,0
2017-10-20T04:47:27.850Z,0
2017-10-20T04:48:28.423Z,0
2017-10-20T04:49:28.998Z,0
2017-10-20T04:50:29.583Z,0
2017-10-20T04:51:30.157Z,0
2017-10-20T04:52:30.731Z,0
2017-10-20T04:53:31.303Z,0
2017-10-20T04:54:31.876Z,0
2017-10-20T04:55:32.451Z,0
2017-10-20T04:56:33.023Z,0
2017-10-20T04:57:33.596Z,0
2017-10-20T04:58:34.171Z,0
2017-10-20T04:59:34.746Z,0
2017-10-20T05:00:35.322Z,0
2017-10-20T05:01:35.896Z,0
2017-10-20T05:02:36.469Z,0
2017-10-20T05:03:37.043Z,0
2017-10-20T05:04:37.629Z,0
2017-10-20T05:05:38.204Z,0
2017-10-20T05:06:38.780Z,0
2017-10-20T05:07:39.353Z,0
2017-10-20T05:08:39.928Z,0
2017-10-20T05:09:40.514Z,0
2017-10-20T05:10:41.086Z,0
2017-10-20T05:11:41.662Z,0
2017-10-20T05:12:42.236Z,0
2017-10-20T05:13:42.810Z,0
2017-10-20T05:14:43.384Z,0
2017-10-20T05:15:43.958Z,0
2017-10-20T05:16:44.532Z,0
2017-10-20T05:17:45.106Z,0
2017-10-20T05:18:45.679Z,0
2017-10-20T05:19:46.253Z,0
2017-10-20T05:20:46.829Z,0
2017-10-20T05:21:47.402Z,0
2017-10-20T05:22:47.979Z,0
2017-10-20T05:23:48.552Z,0
2017-10-20T05:24:49.126Z,0
2017-10-20T05:25:49.701Z,0
2017-10-20T05:26:50.425Z,0
2017-10-20T05:27:50.997Z,0
2017-10-20T05:28:51.582Z,0
2017-10-20T05:29:52.154Z,0
2017-10-20T05:30:52.731Z,0
2017-10-20T05:31:53.304Z,0
2017-10-20T05:32:53.877Z,0
2017-10-20T05:33:54.450Z,0
2017-10-20T05:34:55.026Z,0
2017-10-20T05:35:55.608Z,0
2017-10-20T05:36:56.182Z,0
2017-10-20T05:37:56.757Z,0
2017-10-20T05:38:57.330Z,0
2017-10-20T05:39:57.906Z,0
2017-10-20T05:40:58.479Z,0
2017-10-20T05:41:59.053Z,0
2017-10-20T05:42:59.626Z,0
2017-10-20T05:44:00.199Z,0
2017-10-20T05:45:00.776Z,0
2017-10-20T05:46:01.351Z,0
2017-10-20T05:47:01.926Z,0
2017-10-20T05:48:02.500Z,0
2017-10-20T05:49:03.076Z,0
2017-10-20T05:50:03.648Z,0
2017-10-20T05:51:04.221Z,0
2017-10-20T05:52:04.794Z,0
2017-10-20T05:53:05.369Z,0
2017-10-20T05:54:05.943Z,0
2017-10-20T05:55:06.518Z,0
2017-10-20T05:56:07.102Z,0
2017-10-20T05:57:07.676Z,0
2017-10-20T05:58:08.248Z,0
2017-10-20T05:59:08.822Z,0
2017-10-20T06:00:09.398Z,0
2017-10-20T06:01:09.968Z,0
2017-10-20T06:02:10.590Z,0
2017-10-20T06:03:11.165Z,0
2017-10-20T06:04:11.742Z,0
2017-10-20T06:05:12.314Z,0
2017-10-20T06:06:12.887Z,0
2017-10-20T06:07:13.461Z,0
2017-10-20T06:08:14.036Z,0
2017-10-20T06:09:14.608Z,0
2017-10-20T06:10:15.180Z,0
2017-10-20T06:11:15.753Z,0
2017-10-20T06:12:16.328Z,4
2017-10-20T06:13:16.902Z,4
2017-10-20T06:14:17.487Z,0
2017-10-20T06:15:18.065Z,0
2017-10-20T06:16:18.635Z,4
2017-10-20T06:17:19.207Z,4
2017-10-20T06:18:19.780Z,4
2017-10-20T06:19:20.354Z,4
2017-10-20T06:20:20.930Z,0
2017-10-20T06:21:21.506Z,4
2017-10-20T06:22:22.078Z,4
2017-10-20T06:23:22.654Z,4
2017-10-20T06:24:23.239Z,0
2017-10-20T06:25:23.814Z,4
2017-10-20T06:26:24.389Z,4
2017-10-20T06:27:24.962Z,4
2017-10-20T06:28:25.547Z,8
2017-10-20T06:29:26.122Z,4
2017-10-20T06:30:26.706Z,4
2017-10-20T06:31:27.272Z,8
2017-10-20T06:32:27.844Z,8
2017-10-20T06:33:28.419Z,8
2017-10-20T06:34:28.993Z,8
2017-10-20T06:35:29.565Z,4
2017-10-20T06:36:30.151Z,8
2017-10-20T06:37:30.715Z,4
2017-10-20T06:38:31.287Z,8
2017-10-20T06:39:31.860Z,8
2017-10-20T06:40:32.435Z,8
2017-10-20T06:41:33.008Z,4
2017-10-20T06:42:33.583Z,8
2017-10-20T06:43:34.156Z,8
2017-10-20T06:44:34.728Z,8
2017-10-20T06:45:35.303Z,8
2017-10-20T06:46:35.873Z,8
2017-10-20T06:47:36.447Z,8
2017-10-20T06:48:37.020Z,8
2017-10-20T06:49:37.592Z,8
2017-10-20T06:50:38.166Z,8
2017-10-20T06:51:38.741Z,8
2017-10-20T06:52:39.327Z,8
2017-10-20T06:53:39.899Z,8
2017-10-20T06:54:40.473Z,8
2017-10-20T06:55:41.046Z,12
2017-10-20T06:56:41.622Z,8
2017-10-20T06:57:42.195Z,12
2017-10-20T06:58:42.771Z,16
2017-10-20T06:59:43.355Z,16
2017-10-20T07:00:43.931Z,20
2017-10-20T07:01:44.507Z,20
2017-10-20T07:02:45.080Z,16
2017-10-20T07:03:45.656Z,20
2017-10-20T07:04:46.230Z,20
2017-10-20T07:05:46.805Z,24
2017-10-20T07:06:47.381Z,24
2017-10-20T07:07:47.955Z,28
2017-10-20T07:08:48.532Z,24
2017-10-20T07:09:49.107Z,32
2017-10-20T07:10:49.692Z,32
2017-10-20T07:11:50.272Z,36
2017-10-20T07:12:50.842Z,40
2017-10-20T07:13:51.415Z,40
2017-10-20T07:14:51.989Z,44
2017-10-20T07:15:52.565Z,44
2017-10-20T07:16:53.141Z,48
2017-10-20T07:17:53.716Z,52
2017-10-20T07:18:54.291Z,52
2017-10-20T07:19:54.864Z,52
2017-10-20T07:20:55.438Z,60
2017-10-20T07:21:56.023Z,68
2017-10-20T07:22:56.597Z,76
2017-10-20T07:23:57.173Z,88
2017-10-20T07:24:57.747Z,92
2017-10-20T07:25:58.321Z,92
2017-10-20T07:26:58.906Z,96
2017-10-20T07:27:59.480Z,96
2017-10-20T07:29:00.055Z,96
2017-10-20T07:30:00.631Z,92
2017-10-20T07:31:01.203Z,96
2017-10-20T07:32:01.781Z,104
2017-10-20T07:33:02.355Z,112
2017-10-20T07:34:02.932Z,120
2017-10-20T07:35:03.510Z,128
2017-10-20T07:36:04.089Z,136
2017-10-20T07:37:04.658Z,140
2017-10-20T07:38:05.234Z,140
2017-10-20T07:39:05.811Z,144
2017-10-20T07:40:06.385Z,140
2017-10-20T07:41:06.960Z,152
2017-10-20T07:42:07.535Z,164
2017-10-20T07:43:08.111Z,172
2017-10-20T07:44:08.689Z,176
2017-10-20T07:45:09.276Z,180
2017-10-20T07:46:09.852Z,180
2017-10-20T07:47:10.428Z,176
2017-10-20T07:48:11.103Z,176
2017-10-20T07:49:11.679Z,176
2017-10-20T07:50:12.254Z,180
2017-10-20T07:51:12.830Z,184
2017-10-20T07:52:13.405Z,180
2017-10-20T07:53:13.982Z,172
2017-10-20T07:54:14.559Z,168
2017-10-20T07:55:15.144Z,160
2017-10-20T07:56:15.721Z,160
2017-10-20T07:57:16.296Z,160
2017-10-20T07:58:16.872Z,160
2017-10-20T07:59:17.447Z,148
2017-10-20T08:00:18.025Z,168
2017-10-20T08:01:18.608Z,164
2017-10-20T08:02:19.176Z,164
2017-10-20T08:03:19.763Z,168
2017-10-20T08:04:20.341Z,168
2017-10-20T08:05:20.917Z,156
2017-10-20T08:06:21.503Z,148
2017-10-20T08:07:22.091Z,140
2017-10-20T08:08:22.668Z,140
2017-10-20T08:09:23.243Z,152
2017-10-20T08:10:23.818Z,164
2017-10-20T08:11:24.392Z,168
2017-10-20T08:12:24.967Z,168
2017-10-20T08:13:25.542Z,164
2017-10-20T08:14:26.129Z,152
2017-10-20T08:15:26.705Z,136
2017-10-20T08:16:27.281Z,132
2017-10-20T08:17:27.857Z,128
2017-10-20T08:18:28.434Z,128
2017-10-20T08:19:29.023Z,132
2017-10-20T08:20:29.599Z,124
2017-10-20T08:21:30.177Z,116
2017-10-20T08:22:30.752Z,108
2017-10-20T08:23:31.327Z,100
2017-10-20T08:24:31.904Z,96
2017-10-20T08:25:32.479Z,92
2017-10-20T08:26:33.054Z,92
2017-10-20T08:27:33.629Z,96
2017-10-20T08:28:34.205Z,104
2017-10-20T08:29:34.780Z,116
2017-10-20T08:30:35.357Z,116
2017-10-20T08:31:35.935Z,112
2017-10-20T08:32:36.520Z,108
2017-10-20T08:33:37.095Z,108
2017-10-20T08:34:37.673Z,104
2017-10-20T08:35:38.249Z,108
2017-10-20T08:36:38.824Z,120
2017-10-20T08:37:39.400Z,128
2017-10-20T08:38:39.975Z,132
2017-10-20T08:39:40.554Z,132
2017-10-20T08:40:41.129Z,148
2017-10-20T08:41:41.705Z,160
2017-10-20T08:42:42.280Z,180
2017-10-20T08:43:42.868Z,180
2017-10-20T08:44:43.445Z,164
2017-10-20T08:45:44.019Z,144
2017-10-20T08:46:44.595Z,128
2017-10-20T08:47:45.173Z,116
2017-10-20T08:48:45.747Z,108
2017-10-20T08:49:46.325Z,104
2017-10-20T08:50:46.899Z,96
2017-10-20T08:51:47.472Z,96
2017-10-20T08:52:48.047Z,96
2017-10-20T08:53:48.625Z,88
2017-10-20T08:54:49.201Z,80
2017-10-20T08:55:49.785Z,80
2017-10-20T08:56:50.361Z,80
2017-10-20T08:57:50.937Z,88
2017-10-20T08:58:51.513Z,84
2017-10-20T08:59:52.089Z,84
2017-10-20T09:00:52.668Z,88
2017-10-20T09:01:53.239Z,108
2017-10-20T09:02:53.814Z,132
2017-10-20T09:03:54.391Z,152
2017-10-20T09:04:54.968Z,152
2017-10-20T09:05:55.543Z,160
2017-10-20T09:06:56.118Z,164
2017-10-20T09:07:56.694Z,168
2017-10-20T09:08:57.269Z,172
2017-10-20T09:09:57.848Z,168
2017-10-20T09:10:58.423Z,160
2017-10-20T09:11:59.000Z,144
2017-10-20T09:12:59.576Z,140
2017-10-20T09:14:00.163Z,124
2017-10-20T09:15:00.738Z,104
2017-10-20T09:16:01.313Z,84
2017-10-20T09:17:01.894Z,92
2017-10-20T09:18:02.464Z,136
2017-10-20T09:19:03.041Z,164
2017-10-20T09:20:03.632Z,168
2017-10-20T09:21:04.192Z,164
2017-10-20T09:22:04.768Z,156
2017-10-20T09:23:05.342Z,144
2017-10-20T09:24:05.918Z,132
2017-10-20T09:25:06.495Z,116
2017-10-20T09:26:07.071Z,112
2017-10-20T09:27:07.648Z,124
2017-10-20T09:28:08.233Z,140
2017-10-20T09:29:08.809Z,164
2017-10-20T09:30:09.384Z,176
2017-10-20T09:31:09.962Z,188
2017-10-20T09:32:10.537Z,204
2017-10-20T09:33:11.116Z,220
2017-10-20T09:34:11.693Z,244
2017-10-20T09:35:12.273Z,264
2017-10-20T09:36:12.858Z,288
2017-10-20T09:37:13.437Z,320
2017-10-20T09:38:14.025Z,332
2017-10-20T09:39:14.602Z,328
2017-10-20T09:40:15.179Z,312
2017-10-20T09:41:15.758Z,288
2017-10-20T09:42:16.343Z,292
2017-10-20T09:43:16.919Z,284
2017-10-20T09:44:17.508Z,280
2017-10-20T09:45:18.084Z,268
2017-10-20T09:46:18.663Z,256
2017-10-20T09:47:19.239Z,248
2017-10-20T09:48:19.831Z,236
2017-10-20T09:49:20.411Z,240
2017-10-20T09:50:20.984Z,256
2017-10-20T09:51:21.560Z,276
2017-10-20T09:52:22.139Z,288
2017-10-20T09:53:22.716Z,308
2017-10-20T09:54:23.293Z,332
2017-10-20T09:55:23.869Z,356
2017-10-20T09:56:24.447Z,408
2017-10-20T09:57:25.035Z,452
2017-10-20T09:58:25.614Z,464
2017-10-20T09:59:26.191Z,452
2017-10-20T10:00:26.768Z,428
2017-10-20T10:01:27.345Z,436
2017-10-20T10:02:27.921Z,396
2017-10-20T10:03:28.500Z,408
2017-10-20T10:04:29.078Z,452
2017-10-20T10:05:29.653Z,492
2017-10-20T10:06:30.230Z,492
2017-10-20T10:07:30.808Z,472
2017-10-20T10:08:31.387Z,380
2017-10-20T10:09:31.964Z,284
2017-10-20T10:10:32.543Z,256
2017-10-20T10:11:33.118Z,292
2017-10-20T10:12:33.706Z,284
2017-10-20T10:13:34.283Z,304
2017-10-20T10:14:34.863Z,332
2017-10-20T10:15:35.440Z,332
2017-10-20T10:16:36.017Z,316
2017-10-20T10:17:36.608Z,316
2017-10-20T10:18:37.184Z,344
2017-10-20T10:19:37.762Z,396
2017-10-20T10:20:38.340Z,500
2017-10-20T10:21:38.917Z,480
2017-10-20T10:22:39.494Z,464
2017-10-20T10:23:40.073Z,432
2017-10-20T10:24:40.650Z,464
2017-10-20T10:25:41.227Z,424
2017-10-20T10:26:41.804Z,424
2017-10-20T10:27:42.382Z,544
2017-10-20T10:28:42.960Z,372
2017-10-20T10:29:43.536Z,340
2017-10-20T10:30:44.119Z,476
2017-10-20T10:31:44.691Z,532
2017-10-20T10:32:45.268Z,480
2017-10-20T10:33:45.847Z,552
2017-10-20T10:34:46.423Z,432
2017-10-20T10:35:46.999Z,540
2017-10-20T10:36:47.578Z,536
2017-10-20T10:37:48.155Z,528
2017-10-20T10:38:48.732Z,564
2017-10-20T10:39:49.310Z,504
2017-10-20T10:40:49.886Z,512
2017-10-20T10:41:50.467Z,456
2017-10-20T10:42:51.042Z,572
2017-10-20T10:43:51.620Z,436
2017-10-20T10:44:52.198Z,412
2017-10-20T10:45:52.775Z,432
2017-10-20T10:46:53.354Z,600
2017-10-20T10:47:53.932Z,524
2017-10-20T10:48:54.508Z,556
2017-10-20T10:49:55.094Z,392
2017-10-20T10:50:55.682Z,400
2017-10-20T10:51:56.259Z,408
2017-10-20T10:52:56.847Z,448
2017-10-20T10:53:57.424Z,560
2017-10-20T10:54:58.001Z,692
2017-10-20T10:55:58.581Z,604
2017-10-20T10:56:59.169Z,496
2017-10-20T10:57:59.747Z,416
2017-10-20T10:59:00.323Z,372
2017-10-20T11:00:00.902Z,360
2017-10-20T11:01:01.479Z,352
2017-10-20T11:02:02.058Z,336
2017-10-20T11:03:02.643Z,324
2017-10-20T11:04:03.220Z,424
2017-10-20T11:05:03.796Z,308
2017-10-20T11:06:04.376Z,312
2017-10-20T11:07:04.952Z,320
2017-10-20T11:08:05.540Z,332
2017-10-20T11:09:06.117Z,364
2017-10-20T11:10:06.694Z,468
2017-10-20T11:11:07.272Z,492
2017-10-20T11:12:07.851Z,492
2017-10-20T11:13:08.426Z,496
2017-10-20T11:14:09.013Z,500
2017-10-20T11:15:09.592Z,504
2017-10-20T11:16:10.169Z,504
2017-10-20T11:17:10.745Z,508
2017-10-20T11:18:11.325Z,520
2017-10-20T11:19:11.901Z,524
2017-10-20T11:20:12.478Z,452
2017-10-20T11:21:13.055Z,392
2017-10-20T11:22:13.632Z,556
2017-10-20T11:23:14.210Z,556
2017-10-20T11:24:14.786Z,548
2017-10-20T11:25:15.373Z,524
2017-10-20T11:26:15.951Z,556
2017-10-20T11:27:16.527Z,592
2017-10-20T11:28:17.107Z,592
2017-10-20T11:29:17.681Z,588
2017-10-20T11:30:18.258Z,640
2017-10-20T11:31:18.836Z,652
2017-10-20T11:32:19.413Z,668
2017-10-20T11:33:19.990Z,528
2017-10-20T11:34:20.569Z,704
2017-10-20T11:35:21.146Z,676
2017-10-20T11:36:21.722Z,476
2017-10-20T11:37:22.300Z,452
2017-10-20T11:38:22.889Z,608
2017-10-20T11:39:23.467Z,432
2017-10-20T11:40:24.048Z,456
2017-10-20T11:41:24.624Z,480
2017-10-20T11:42:25.200Z,504
2017-10-20T11:43:25.788Z,580
2017-10-20T11:44:26.365Z,428
2017-10-20T11:45:26.940Z,396
2017-10-20T11:46:27.516Z,384
2017-10-20T11:47:28.095Z,556
2017-10-20T11:48:28.690Z,456
2017-10-20T11:49:29.250Z,544
2017-10-20T11:50:29.827Z,392
2017-10-20T11:51:30.405Z,456
2017-10-20T11:52:30.982Z,512
2017-10-20T11:53:31.559Z,508
2017-10-20T11:54:32.137Z,512
2017-10-20T11:55:32.715Z,512
2017-10-20T11:56:33.294Z,512
2017-10-20T11:57:33.870Z,516
2017-10-20T11:58:34.447Z,520
2017-10-20T11:59:35.026Z,520
2017-10-20T12:00:35.603Z,532
2017-10-20T12:01:36.181Z,552
2017-10-20T12:02:36.756Z,572
2017-10-20T12:03:37.336Z,520
2017-10-20T12:04:37.917Z,456
2017-10-20T12:05:38.491Z,428
2017-10-20T12:06:39.068Z,556
2017-10-20T12:07:39.647Z,540
2017-10-20T12:08:40.226Z,516
2017-10-20T12:09:40.815Z,528
2017-10-20T12:10:41.393Z,592
2017-10-20T12:11:41.972Z,464
2017-10-20T12:12:42.560Z,636
2017-10-20T12:13:43.143Z,344
2017-10-20T12:14:43.713Z,348
2017-10-20T12:15:44.291Z,372
2017-10-20T12:16:44.868Z,412
2017-10-20T12:17:45.446Z,444
2017-10-20T12:18:46.023Z,488
2017-10-20T12:19:46.599Z,512
2017-10-20T12:20:47.178Z,524
2017-10-20T12:21:47.755Z,512
2017-10-20T12:22:48.345Z,468
2017-10-20T12:23:48.919Z,412
2017-10-20T12:24:49.498Z,364
2017-10-20T12:25:50.074Z,320
2017-10-20T12:26:50.651Z,316
2017-10-20T12:27:51.238Z,356
2017-10-20T12:28:51.815Z,336
2017-10-20T12:29:52.392Z,336
2017-10-20T12:30:52.972Z,340
2017-10-20T12:31:53.547Z,336
2017-10-20T12:32:54.124Z,328
2017-10-20T12:33:54.703Z,316
2017-10-20T12:34:55.280Z,308
2017-10-20T12:35:55.859Z,320
2017-10-20T12:36:56.448Z,340
2017-10-20T12:37:57.025Z,332
2017-10-20T12:38:57.602Z,304
2017-10-20T12:39:58.180Z,332
2017-10-20T12:40:58.759Z,344
2017-10-20T12:41:59.336Z,384
2017-10-20T12:42:59.912Z,460
2017-10-20T12:44:00.490Z,500
2017-10-20T12:45:01.068Z,528
2017-10-20T12:46:01.645Z,520
2017-10-20T12:47:02.222Z,524
2017-10-20T12:48:02.798Z,504
2017-10-20T12:49:03.376Z,520
2017-10-20T12:50:03.955Z,528
2017-10-20T12:51:04.530Z,516
2017-10-20T12:52:05.108Z,484
2017-10-20T12:53:05.687Z,408
2017-10-20T12:54:06.263Z,404
2017-10-20T12:55:06.852Z,408
2017-10-20T12:56:07.430Z,408
2017-10-20T12:57:08.007Z,408
2017-10-20T12:58:08.583Z,400
2017-10-20T12:59:09.163Z,436
2017-10-20T13:00:09.740Z,444
2017-10-20T13:01:10.317Z,456
2017-10-20T13:02:10.900Z,428
2017-10-20T13:03:11.471Z,336
2017-10-20T13:04:12.050Z,316
2017-10-20T13:05:12.627Z,320
2017-10-20T13:06:13.204Z,320
2017-10-20T13:07:13.780Z,308
2017-10-20T13:08:14.358Z,288
2017-10-20T13:09:14.935Z,256
2017-10-20T13:10:15.512Z,236
2017-10-20T13:11:16.089Z,212
2017-10-20T13:12:16.667Z,204
2017-10-20T13:13:17.243Z,212
2017-10-20T13:14:17.821Z,224
2017-10-20T13:15:18.399Z,224
2017-10-20T13:16:18.978Z,196
2017-10-20T13:17:19.552Z,176
2017-10-20T13:18:20.128Z,184
2017-10-20T13:19:20.703Z,172
2017-10-20T13:20:21.278Z,164
2017-10-20T13:21:21.853Z,164
2017-10-20T13:22:22.429Z,136
2017-10-20T13:23:23.006Z,112
2017-10-20T13:24:23.583Z,108
2017-10-20T13:25:24.159Z,128
2017-10-20T13:26:24.732Z,136
2017-10-20T13:27:25.309Z,144
2017-10-20T13:28:25.886Z,148
2017-10-20T13:29:26.463Z,144
2017-10-20T13:30:27.039Z,156
2017-10-20T13:31:27.615Z,156
2017-10-20T13:32:28.192Z,148
2017-10-20T13:33:28.767Z,128
2017-10-20T13:34:29.344Z,120
2017-10-20T13:35:29.919Z,124
2017-10-20T13:36:30.495Z,136
2017-10-20T13:37:31.071Z,132
2017-10-20T13:38:31.647Z,132
2017-10-20T13:39:32.224Z,136
2017-10-20T13:40:32.801Z,152
2017-10-20T13:41:33.388Z,176
2017-10-20T13:42:33.965Z,192
2017-10-20T13:43:34.540Z,220
2017-10-20T13:44:35.116Z,240
2017-10-20T13:45:35.692Z,240
2017-10-20T13:46:36.267Z,232
2017-10-20T13:47:36.845Z,240
2017-10-20T13:48:37.435Z,256
2017-10-20T13:49:38.012Z,284
2017-10-20T13:50:38.589Z,288
2017-10-20T13:51:39.165Z,272
2017-10-20T13:52:39.742Z,276
2017-10-20T13:53:40.321Z,308
2017-10-20T13:54:40.897Z,312
2017-10-20T13:55:41.485Z,296
2017-10-20T13:56:42.062Z,272
2017-10-20T13:57:42.639Z,236
2017-10-20T13:58:43.215Z,216
2017-10-20T13:59:43.793Z,228
2017-10-20T14:00:44.370Z,232
2017-10-20T14:01:44.946Z,236
2017-10-20T14:02:45.521Z,224
2017-10-20T14:03:46.097Z,216
2017-10-20T14:04:46.674Z,200
2017-10-20T14:05:47.255Z,180
2017-10-20T14:06:47.826Z,152
2017-10-20T14:07:48.402Z,132
2017-10-20T14:08:48.975Z,108
2017-10-20T14:09:49.554Z,100
2017-10-20T14:10:50.130Z,104
2017-10-20T14:11:50.718Z,104
2017-10-20T14:12:51.294Z,104
2017-10-20T14:13:51.869Z,108
2017-10-20T14:14:52.446Z,116
2017-10-20T14:15:53.021Z,124
2017-10-20T14:16:53.597Z,112
2017-10-20T14:17:54.174Z,112
2017-10-20T14:18:54.749Z,104
2017-10-20T14:19:55.326Z,116
2017-10-20T14:20:55.901Z,132
2017-10-20T14:21:56.475Z,136
2017-10-20T14:22:57.050Z,128
2017-10-20T14:23:57.628Z,132
2017-10-20T14:24:58.219Z,140